Rockham, South Dakota
Current Conditions -  °F | °C
As of 11:53 PM on Thursday 18 Dec 2014 (Local Time) from KABR Reporting Station
Overcast Overcast  
Wind Chill: 18°   Ceiling: 1400
Heat Index: 27°   Visibility: 7mi
Dew Point: 24°   Wind: 9mph
Humidity: 89%   Direction: 180°S
Pressure: 30.12"   Gusts: NA
Location:  44.9°N, 98.82°W
Report Text: KABR 190553Z AUTO 18008KT 7SM OVC014 M03/M04 A3012 RMK AO2 SLP218 T10281044 11028 21039 410281111 53001
Loading
Personal Weather Stations






























Interactive Weather Map New forecast layout! Learn more

10-Day Weather Forecast

Advertisements
Track Severe Weather on mobile